createdAt,value
2023-02-09T00:01:38.023Z,73.86
2023-02-09T00:04:08.038Z,75.12
2023-02-09T00:06:40.370Z,73.93
2023-02-09T00:09:10.118Z,73.87
2023-02-09T00:11:52.302Z,73.99
2023-02-09T00:14:23.389Z,73.86
2023-02-09T00:16:53.446Z,73.80
2023-02-09T00:19:24.630Z,73.50
2023-02-09T00:21:57.400Z,73.44
2023-02-09T00:24:27.427Z,73.54
2023-02-09T00:26:57.186Z,72.31
2023-02-09T00:29:27.691Z,72.64
2023-02-09T00:31:57.568Z,72.86
2023-02-09T00:34:27.317Z,72.47
2023-02-09T00:36:59.589Z,72.39
2023-02-09T00:39:29.327Z,72.17
2023-02-09T00:42:11.385Z,72.80
2023-02-09T00:44:42.730Z,72.61
2023-02-09T00:47:13.058Z,72.43
2023-02-09T00:49:42.880Z,73.09
2023-02-09T00:52:15.165Z,72.96
2023-02-09T00:54:44.854Z,73.24
2023-02-09T00:57:14.598Z,73.23
2023-02-09T00:59:44.360Z,73.43
2023-02-09T01:02:14.016Z,73.46
2023-02-09T01:04:43.863Z,73.54
2023-02-09T01:07:16.158Z,73.57
2023-02-09T01:09:45.829Z,72.47
2023-02-09T01:12:15.634Z,72.91
2023-02-09T01:14:45.637Z,72.83
2023-02-09T01:17:15.656Z,73.06
2023-02-09T01:19:45.327Z,72.81
2023-02-09T01:22:18.205Z,72.51
2023-02-09T01:24:47.941Z,72.78
2023-02-09T01:27:17.786Z,73.01
2023-02-09T01:29:47.981Z,73.16
2023-02-09T01:32:17.739Z,73.45
2023-02-09T01:34:47.509Z,72.87
2023-02-09T01:37:19.832Z,73.08
2023-02-09T01:39:49.761Z,73.02
2023-02-09T01:42:20.134Z,73.02
2023-02-09T01:45:08.802Z,72.94
2023-02-09T01:47:44.654Z,73.14
2023-02-09T01:50:16.140Z,73.10
2023-02-09T01:52:51.094Z,73.11
2023-02-09T01:55:25.225Z,73.24
2023-02-09T01:58:00.503Z,73.48
2023-02-09T02:00:30.684Z,73.35
2023-02-09T02:03:04.725Z,73.15
2023-02-09T02:05:37.356Z,73.08
2023-02-09T02:08:17.908Z,73.49
2023-02-09T02:10:47.882Z,73.18
2023-02-09T02:13:17.829Z,73.09
2023-02-09T02:16:01.983Z,73.29
2023-02-09T02:18:51.524Z,73.54
2023-02-09T02:22:12.270Z,73.11
2023-02-09T02:25:18.786Z,73.63
2023-02-09T02:27:51.624Z,74.07
2023-02-09T02:30:39.696Z,73.61
2023-02-09T02:33:29.792Z,73.77
2023-02-09T02:36:07.124Z,73.46
2023-02-09T02:38:41.811Z,73.41
2023-02-09T02:41:17.827Z,73.87
2023-02-09T02:44:00.018Z,73.67
2023-02-09T02:46:36.229Z,73.43
2023-02-09T02:49:15.091Z,73.27
2023-02-09T02:51:48.515Z,73.37
2023-02-09T02:54:22.579Z,73.30
2023-02-09T02:56:56.422Z,73.96
2023-02-09T02:59:30.118Z,73.51
2023-02-09T03:02:06.389Z,74.49
2023-02-09T03:04:40.760Z,74.72
2023-02-09T03:07:10.602Z,74.35
2023-02-09T03:09:40.341Z,73.96
2023-02-09T03:12:18.103Z,73.69
2023-02-09T03:21:17.414Z,74.12
2023-02-09T03:23:55.551Z,73.94
2023-02-09T03:26:29.569Z,74.32
2023-02-09T03:29:02.045Z,74.47
2023-02-09T03:31:33.440Z,74.58
2023-02-09T03:34:03.619Z,74.40
2023-02-09T03:36:40.319Z,74.39
2023-02-09T03:39:10.031Z,74.65
2023-02-09T03:41:39.934Z,75.34
2023-02-09T03:44:22.064Z,74.94
2023-02-09T03:46:51.887Z,74.89
2023-02-09T03:49:21.765Z,74.20
2023-02-09T03:51:54.348Z,74.68
2023-02-09T03:54:24.438Z,74.55
2023-02-09T03:56:54.244Z,74.47
2023-02-09T03:59:25.326Z,74.58
2023-02-09T04:01:55.735Z,74.99
2023-02-09T04:04:25.875Z,74.94
2023-02-09T04:06:58.945Z,75.19
2023-02-09T04:09:30.042Z,75.12
2023-02-09T04:11:59.937Z,75.27
2023-02-09T04:14:29.645Z,75.08
2023-02-09T04:16:59.266Z,75.40
2023-02-09T04:19:29.329Z,74.80
2023-02-09T04:22:01.675Z,75.62
2023-02-09T04:24:32.031Z,75.71
2023-02-09T04:27:01.720Z,75.60
2023-02-09T04:29:31.588Z,74.07
2023-02-09T04:32:01.324Z,74.44
2023-02-09T04:34:33.846Z,74.91
2023-02-09T04:37:06.131Z,74.89
2023-02-09T04:39:35.865Z,74.98
2023-02-09T04:42:05.688Z,75.39
2023-02-09T04:44:35.359Z,75.10
2023-02-09T04:47:05.062Z,75.31
2023-02-09T04:49:34.857Z,74.97
2023-02-09T04:52:07.505Z,75.31
2023-02-09T04:54:37.168Z,75.35
2023-02-09T04:57:19.293Z,75.61
2023-02-09T04:59:49.030Z,75.22
2023-02-09T05:02:18.779Z,75.51
2023-02-09T05:04:48.515Z,75.48
2023-02-09T05:07:20.888Z,75.64
2023-02-09T05:09:50.579Z,75.82
2023-02-09T05:12:20.272Z,75.54
2023-02-09T05:14:49.964Z,75.76
2023-02-09T05:17:21.289Z,75.76
2023-02-09T05:19:51.434Z,75.44
2023-02-09T05:22:23.800Z,75.48
2023-02-09T05:24:53.712Z,75.82
2023-02-09T05:27:23.420Z,75.87
2023-02-09T05:29:53.071Z,75.85
2023-02-09T05:32:22.821Z,75.65
2023-02-09T05:34:52.594Z,75.94
2023-02-09T05:37:24.920Z,75.76
2023-02-09T05:39:54.666Z,75.63
2023-02-09T05:42:24.409Z,76.08
2023-02-09T05:44:54.520Z,76.34
2023-02-09T05:47:26.844Z,76.31
2023-02-09T05:49:56.541Z,76.09
2023-02-09T05:52:28.934Z,75.84
2023-02-09T05:54:58.612Z,75.84
2023-02-09T05:57:28.407Z,76.24
2023-02-09T05:59:58.168Z,75.89
2023-02-09T06:02:27.930Z,75.91
2023-02-09T06:04:57.615Z,75.65
2023-02-09T06:07:30.066Z,75.41
2023-02-09T06:09:59.774Z,75.90
2023-02-09T06:12:29.600Z,75.99
2023-02-09T06:14:59.381Z,75.82
2023-02-09T06:17:29.138Z,76.30
2023-02-09T06:19:58.851Z,76.01
2023-02-09T06:22:31.979Z,76.17
2023-02-09T06:25:01.801Z,76.88
2023-02-09T06:27:31.553Z,76.92
2023-02-09T06:30:01.232Z,76.71
2023-02-09T06:32:30.958Z,76.64
2023-02-09T06:35:00.784Z,76.05
2023-02-09T06:37:33.306Z,75.96
2023-02-09T06:40:03.098Z,75.99
2023-02-09T06:42:44.097Z,76.40
2023-02-09T06:45:14.361Z,76.30
2023-02-09T06:47:44.700Z,76.09
2023-02-09T06:50:16.018Z,76.13
2023-02-09T06:52:48.992Z,75.55
2023-02-09T06:55:18.859Z,76.29
2023-02-09T06:57:48.837Z,76.19
2023-02-09T07:00:19.666Z,76.39
2023-02-09T07:02:49.778Z,76.54
2023-02-09T07:05:20.950Z,76.99
2023-02-09T07:07:53.308Z,76.91
2023-02-09T07:10:23.275Z,76.67
2023-02-09T07:12:53.097Z,76.73
2023-02-09T07:15:22.872Z,76.74
2023-02-09T07:17:52.607Z,76.70
2023-02-09T07:20:22.633Z,76.66
2023-02-09T07:22:54.897Z,76.48
2023-02-09T07:25:24.633Z,76.48
2023-02-09T07:27:54.458Z,76.50
2023-02-09T07:30:24.316Z,76.60
2023-02-09T07:32:53.983Z,76.44
2023-02-09T07:35:23.717Z,76.40
2023-02-09T07:37:56.073Z,76.23
2023-02-09T07:40:25.943Z,76.56
2023-02-09T07:42:55.740Z,76.46
2023-02-09T07:45:25.525Z,77.01
2023-02-09T07:47:55.198Z,76.14
2023-02-09T07:50:24.968Z,76.66
2023-02-09T07:52:58.620Z,75.23
2023-02-09T07:55:28.305Z,75.69
2023-02-09T07:57:58.036Z,76.01
2023-02-09T08:00:27.958Z,75.86
2023-02-09T08:02:58.116Z,75.71
2023-02-09T08:05:33.887Z,74.92
2023-02-09T08:08:06.287Z,75.61
2023-02-09T08:10:36.328Z,75.57
2023-02-09T08:13:06.243Z,72.95
2023-02-09T08:15:43.968Z,74.11
2023-02-09T08:18:18.714Z,74.27
2023-02-09T08:20:49.532Z,74.92
2023-02-09T08:23:26.102Z,74.69
2023-02-09T08:25:56.920Z,75.27
2023-02-09T08:28:41.639Z,75.27
2023-02-09T08:31:12.960Z,75.21
2023-02-09T08:33:43.341Z,74.99
2023-02-09T08:36:14.254Z,74.23
2023-02-09T08:38:48.189Z,74.65
2023-02-09T08:41:19.679Z,74.27
2023-02-09T08:43:53.121Z,74.16
2023-02-09T08:46:22.876Z,74.60
2023-02-09T08:48:52.611Z,74.82
2023-02-09T08:51:22.381Z,74.33
2023-02-09T08:53:54.854Z,74.12
2023-02-09T08:56:25.632Z,72.07
2023-02-09T08:58:55.385Z,73.88
2023-02-09T09:01:25.103Z,73.90
2023-02-09T09:03:55.111Z,74.36
2023-02-09T09:06:25.078Z,74.30
2023-02-09T09:08:57.660Z,74.27
2023-02-09T09:11:28.247Z,73.15
2023-02-09T09:13:58.375Z,71.86
2023-02-09T09:16:28.178Z,72.31
2023-02-09T09:18:57.981Z,72.01
2023-02-09T09:21:28.434Z,70.79
2023-02-09T09:24:00.754Z,71.96
2023-02-09T09:26:30.583Z,72.59
2023-02-09T09:29:00.548Z,70.43
2023-02-09T09:31:30.836Z,72.32
2023-02-09T09:34:00.593Z,70.16
2023-02-09T09:36:30.534Z,71.76
2023-02-09T09:39:03.119Z,71.59
2023-02-09T09:41:37.581Z,72.10
2023-02-09T09:44:16.667Z,72.59
2023-02-09T09:46:49.631Z,72.79
2023-02-09T09:49:25.741Z,70.41
2023-02-09T09:51:59.737Z,70.59
2023-02-09T09:54:36.302Z,69.77
2023-02-09T09:57:06.349Z,70.90
2023-02-09T09:59:39.429Z,71.58
2023-02-09T10:02:21.175Z,70.38
2023-02-09T10:04:51.288Z,70.05
2023-02-09T10:07:23.947Z,70.82
2023-02-09T10:10:02.210Z,70.48
2023-02-09T10:12:39.243Z,70.56
2023-02-09T10:15:28.116Z,69.86
2023-02-09T10:17:58.296Z,70.71
2023-02-09T10:20:46.924Z,67.20
2023-02-09T10:23:28.781Z,67.30
2023-02-09T10:26:05.821Z,67.69
2023-02-09T10:28:37.604Z,68.39
2023-02-09T10:31:14.956Z,64.87
2023-02-09T10:33:47.290Z,65.25
2023-02-09T10:36:30.272Z,65.25
2023-02-09T10:39:13.696Z,66.62
2023-02-09T10:41:49.350Z,65.18
2023-02-09T10:44:23.409Z,63.80
2023-02-09T10:46:53.705Z,65.51
2023-02-09T10:49:36.478Z,66.31
2023-02-09T10:52:17.007Z,63.47
2023-02-09T10:54:50.820Z,63.15
2023-02-09T10:57:31.011Z,63.64
2023-02-09T11:00:02.558Z,63.87
2023-02-09T11:02:41.346Z,65.13
2023-02-09T11:05:29.701Z,64.97
2023-02-09T11:08:09.914Z,66.60
2023-02-09T11:10:46.151Z,66.57
2023-02-09T11:13:27.817Z,64.44
2023-02-09T11:16:30.524Z,64.99
2023-02-09T11:19:05.877Z,65.02
2023-02-09T11:21:49.675Z,64.72
2023-02-09T11:24:27.125Z,65.10
2023-02-09T11:27:03.557Z,65.66
2023-02-09T11:29:44.038Z,64.97
2023-02-09T11:32:22.485Z,64.93
2023-02-09T11:35:13.975Z,64.31
2023-02-09T11:37:53.110Z,65.40
2023-02-09T11:40:27.609Z,64.56
2023-02-09T11:43:13.132Z,64.58
2023-02-09T11:45:48.982Z,65.04
2023-02-09T11:48:26.194Z,64.01
2023-02-09T11:51:04.527Z,63.81
2023-02-09T11:53:43.936Z,63.19
2023-02-09T11:56:16.760Z,63.87
2023-02-09T11:58:51.596Z,65.16
2023-02-09T12:01:36.139Z,64.77
2023-02-09T12:04:18.741Z,65.00
2023-02-09T12:06:52.901Z,61.22
2023-02-09T12:09:38.676Z,62.34
2023-02-09T12:12:18.638Z,63.82
2023-02-09T12:14:58.444Z,63.48
2023-02-09T12:17:42.717Z,63.64
2023-02-09T12:20:26.900Z,63.41
2023-02-09T12:23:04.579Z,63.43
2023-02-09T12:25:50.213Z,60.58
2023-02-09T12:28:48.449Z,60.94
2023-02-09T12:31:24.420Z,63.31
2023-02-09T12:34:16.186Z,61.77
2023-02-09T12:37:30.417Z,61.76
2023-02-09T12:40:20.248Z,63.18
2023-02-09T12:43:23.758Z,61.98
2023-02-09T12:46:20.512Z,62.61
2023-02-09T12:49:02.251Z,62.67
2023-02-09T12:52:12.735Z,62.68
2023-02-09T12:54:51.986Z,61.67
2023-02-09T12:57:54.941Z,62.08
2023-02-09T13:00:44.071Z,60.08
2023-02-09T13:03:24.682Z,61.19
2023-02-09T13:05:59.820Z,61.20
2023-02-09T13:08:53.417Z,60.96
2023-02-09T13:11:29.415Z,60.46
2023-02-09T13:14:03.294Z,61.34
2023-02-09T13:16:53.512Z,59.96
2023-02-09T13:19:53.398Z,60.78
2023-02-09T13:22:32.987Z,61.15
2023-02-09T13:25:16.593Z,60.35
2023-02-09T13:27:48.366Z,61.64
2023-02-09T13:30:28.536Z,59.88
2023-02-09T13:33:08.632Z,61.32
2023-02-09T13:35:46.873Z,60.46
2023-02-09T13:38:21.615Z,62.07
2023-02-09T13:40:55.510Z,62.36
2023-02-09T13:43:32.242Z,61.08
2023-02-09T13:46:03.371Z,61.97
2023-02-09T13:48:35.685Z,61.84
2023-02-09T13:51:17.230Z,61.90
2023-02-09T13:53:59.148Z,60.42
2023-02-09T13:56:33.883Z,62.45
2023-02-09T13:59:04.314Z,60.84
2023-02-09T14:01:36.572Z,61.55
2023-02-09T14:04:12.930Z,62.08
2023-02-09T14:06:47.299Z,62.51
2023-02-09T14:09:21.221Z,60.64
2023-02-09T14:11:56.434Z,61.02
2023-02-09T14:14:29.580Z,61.40
2023-02-09T14:17:24.857Z,60.71
2023-02-09T14:19:56.670Z,61.42
2023-02-09T14:22:33.630Z,61.74
2023-02-09T14:25:03.805Z,62.29
2023-02-09T14:27:41.985Z,61.66
2023-02-09T14:30:18.409Z,60.50
2023-02-09T14:32:48.512Z,61.14
2023-02-09T14:35:22.169Z,61.75
2023-02-09T14:37:53.990Z,61.93
2023-02-09T14:40:34.330Z,60.13
2023-02-09T14:43:25.103Z,60.84
2023-02-09T14:46:01.995Z,61.33
2023-02-09T14:48:33.278Z,62.19
2023-02-09T14:51:05.239Z,62.52
2023-02-09T14:53:36.040Z,62.32
2023-02-09T14:56:05.746Z,62.31
2023-02-09T14:58:38.092Z,62.21
2023-02-09T15:01:09.172Z,62.88
2023-02-09T15:03:38.922Z,61.71
2023-02-09T15:06:09.184Z,62.04
2023-02-09T15:08:40.376Z,62.39
2023-02-09T15:11:25.956Z,62.53
2023-02-09T15:14:01.662Z,62.05
2023-02-09T15:16:31.373Z,63.46
2023-02-09T15:19:04.089Z,63.10
2023-02-09T15:21:33.817Z,62.72
2023-02-09T15:24:03.581Z,62.97
2023-02-09T15:26:38.424Z,61.55
2023-02-09T15:29:14.112Z,61.11
2023-02-09T15:31:44.217Z,61.89
2023-02-09T15:34:15.567Z,62.14
2023-02-09T15:36:45.370Z,61.90
2023-02-09T15:39:21.479Z,61.84
2023-02-09T15:42:03.592Z,62.50
2023-02-09T15:44:48.584Z,62.23
2023-02-09T15:47:30.673Z,62.51
2023-02-09T15:50:00.444Z,63.08
2023-02-09T15:52:33.034Z,62.72
2023-02-09T15:55:02.988Z,62.38
2023-02-09T15:57:32.972Z,62.57
2023-02-09T16:00:11.799Z,62.47
2023-02-09T16:02:41.671Z,62.76
2023-02-09T16:05:11.565Z,61.46
2023-02-09T16:07:41.299Z,61.73
2023-02-09T16:10:16.239Z,61.71
2023-02-09T16:12:45.963Z,62.03
2023-02-09T16:15:22.927Z,60.75
2023-02-09T16:17:52.762Z,61.95
2023-02-09T16:20:25.807Z,61.64
2023-02-09T16:22:57.511Z,62.22
2023-02-09T16:25:28.884Z,61.70
2023-02-09T16:28:01.078Z,62.19
2023-02-09T16:30:37.888Z,61.98
2023-02-09T16:33:07.746Z,62.26
2023-02-09T16:35:37.434Z,62.26
2023-02-09T16:38:19.007Z,61.64
2023-02-09T16:40:52.054Z,62.44
2023-02-09T16:43:22.630Z,62.30
2023-02-09T16:46:03.386Z,61.89
2023-02-09T16:48:35.730Z,62.78
2023-02-09T16:51:05.827Z,62.98
2023-02-09T16:53:40.811Z,62.36
2023-02-09T16:56:12.478Z,62.49
2023-02-09T16:58:42.365Z,62.94
2023-02-09T17:01:21.149Z,62.38
2023-02-09T17:03:53.592Z,62.60
2023-02-09T17:06:25.472Z,62.41
2023-02-09T17:08:56.792Z,62.87
2023-02-09T17:11:27.900Z,63.02
2023-02-09T17:13:57.588Z,62.60
2023-02-09T17:16:34.041Z,62.72
2023-02-09T17:19:05.479Z,62.91
2023-02-09T17:21:38.966Z,63.08
2023-02-09T17:24:14.254Z,63.05
2023-02-09T17:26:44.115Z,63.49
2023-02-09T17:29:14.629Z,63.52
2023-02-09T17:31:53.168Z,63.64
2023-02-09T17:34:27.296Z,63.74
2023-02-09T17:36:57.323Z,63.85
2023-02-09T17:39:29.902Z,63.77
2023-02-09T17:42:01.014Z,64.00
2023-02-09T17:44:45.617Z,63.77
2023-02-09T17:47:20.888Z,63.59
2023-02-09T17:49:50.617Z,64.14
2023-02-09T17:52:21.616Z,64.35
2023-02-09T17:54:51.547Z,64.63
2023-02-09T17:57:21.267Z,64.94
2023-02-09T17:59:51.017Z,64.93
2023-02-09T18:02:23.390Z,65.00
2023-02-09T18:04:53.089Z,65.01
2023-02-09T18:07:22.828Z,64.87
2023-02-09T18:09:54.433Z,65.06
2023-02-09T18:12:29.174Z,65.23
2023-02-09T18:14:59.293Z,65.23
2023-02-09T18:17:31.668Z,64.93
2023-02-09T18:20:01.421Z,65.23
2023-02-09T18:22:31.314Z,65.31
2023-02-09T18:25:01.580Z,65.25
2023-02-09T18:27:31.377Z,65.39
2023-02-09T18:30:01.128Z,65.74
2023-02-09T18:32:33.466Z,65.84
2023-02-09T18:35:03.169Z,65.94
2023-02-09T18:37:32.873Z,65.97
2023-02-09T18:40:02.625Z,66.06
2023-02-09T18:42:32.419Z,66.27
2023-02-09T18:45:02.556Z,66.43
2023-02-09T18:47:36.498Z,66.54
2023-02-09T18:50:06.831Z,66.75
2023-02-09T18:52:36.739Z,66.99
2023-02-09T18:55:06.654Z,66.92
2023-02-09T18:57:36.397Z,66.85
2023-02-09T19:00:07.890Z,66.88
2023-02-09T19:02:40.233Z,66.82
2023-02-09T19:05:10.371Z,67.01
2023-02-09T19:07:40.133Z,67.02
2023-02-09T19:10:11.135Z,67.42
2023-02-09T19:12:41.637Z,67.34
2023-02-09T19:15:11.854Z,67.48
2023-02-09T19:17:44.614Z,67.26
2023-02-09T19:20:17.994Z,67.45
2023-02-09T19:22:48.165Z,67.72
2023-02-09T19:25:18.107Z,67.74
2023-02-09T19:27:47.697Z,67.94
2023-02-09T19:30:21.510Z,67.86
2023-02-09T19:32:54.037Z,68.04
2023-02-09T19:35:24.720Z,68.51
2023-02-09T19:37:55.064Z,68.83
2023-02-09T19:40:28.630Z,69.38
2023-02-09T19:42:58.916Z,69.58
2023-02-09T19:45:31.105Z,70.39
2023-02-09T19:48:03.491Z,71.05
2023-02-09T19:50:33.217Z,71.63
2023-02-09T19:53:03.011Z,71.60
2023-02-09T19:55:32.822Z,72.59
2023-02-09T19:58:02.519Z,72.98
2023-02-09T20:00:32.278Z,72.65
2023-02-09T20:03:04.743Z,72.80
2023-02-09T20:05:34.543Z,72.94
2023-02-09T20:08:05.241Z,73.25
2023-02-09T20:10:34.972Z,73.71
2023-02-09T20:13:05.673Z,73.68
2023-02-09T20:15:36.275Z,73.98
2023-02-09T20:18:08.730Z,73.98
2023-02-09T20:20:38.524Z,74.14
2023-02-09T20:23:08.313Z,74.37
2023-02-09T20:25:38.199Z,74.37
2023-02-09T20:28:08.381Z,74.64
2023-02-09T20:30:38.375Z,74.26
2023-02-09T20:33:11.666Z,74.85
2023-02-09T20:35:43.193Z,74.88
2023-02-09T20:38:13.730Z,75.10
2023-02-09T20:40:45.491Z,75.15
2023-02-09T20:43:28.313Z,74.80
2023-02-09T20:46:10.467Z,74.81
2023-02-09T20:48:43.018Z,74.65
2023-02-09T20:51:12.880Z,75.09
2023-02-09T20:53:42.847Z,75.33
2023-02-09T20:56:12.620Z,75.27
2023-02-09T20:58:42.486Z,75.48
2023-02-09T21:01:12.286Z,75.25
2023-02-09T21:03:44.840Z,75.53
2023-02-09T21:06:16.265Z,75.63
2023-02-09T21:08:46.419Z,75.66
2023-02-09T21:11:17.328Z,75.77
2023-02-09T21:13:47.355Z,75.75
2023-02-09T21:16:20.377Z,75.60
2023-02-09T21:18:53.343Z,76.10
2023-02-09T21:21:23.750Z,76.02
2023-02-09T21:23:53.433Z,76.18
2023-02-09T21:26:25.123Z,75.94
2023-02-09T21:28:58.200Z,76.16
2023-02-09T21:31:30.446Z,76.56
2023-02-09T21:34:02.824Z,76.69
2023-02-09T21:36:32.694Z,76.86
2023-02-09T21:39:02.478Z,76.93
2023-02-09T21:41:44.589Z,77.29
2023-02-09T21:44:15.192Z,77.45
2023-02-09T21:46:45.091Z,77.51
2023-02-09T21:49:17.799Z,77.59
2023-02-09T21:51:48.044Z,77.54
2023-02-09T21:54:18.853Z,78.11
2023-02-09T21:56:48.832Z,77.94
2023-02-09T21:59:18.652Z,78.09
2023-02-09T22:01:48.357Z,78.41
2023-02-09T22:04:20.893Z,78.63
2023-02-09T22:06:50.685Z,78.66
2023-02-09T22:09:20.506Z,79.25
2023-02-09T22:11:50.264Z,79.34
2023-02-09T22:14:21.071Z,79.71
2023-02-09T22:16:50.858Z,79.54
2023-02-09T22:19:23.314Z,79.46
2023-02-09T22:21:53.597Z,79.90
2023-02-09T22:24:23.325Z,80.10
2023-02-09T22:26:53.432Z,80.22
2023-02-09T22:29:23.250Z,80.56
2023-02-09T22:31:53.058Z,80.57
2023-02-09T22:34:25.375Z,80.40
2023-02-09T22:36:55.927Z,80.47
2023-02-09T22:39:25.788Z,80.92
2023-02-09T22:41:58.166Z,81.33
2023-02-09T22:44:28.000Z,81.78
2023-02-09T22:46:57.662Z,81.55
2023-02-09T22:49:30.030Z,81.61
2023-02-09T22:51:59.731Z,81.71
2023-02-09T22:54:31.077Z,81.38
2023-02-09T22:57:00.792Z,81.37
2023-02-09T22:59:30.538Z,81.20
2023-02-09T23:02:00.307Z,81.44
2023-02-09T23:04:33.305Z,81.36
2023-02-09T23:07:04.132Z,81.40
2023-02-09T23:09:34.543Z,81.88
2023-02-09T23:12:04.449Z,81.65
2023-02-09T23:14:34.168Z,81.78
2023-02-09T23:17:03.884Z,81.93
2023-02-09T23:19:36.266Z,82.49
2023-02-09T23:22:06.046Z,82.30
2023-02-09T23:24:35.754Z,82.36
2023-02-09T23:27:05.470Z,82.70
2023-02-09T23:29:35.173Z,82.64
2023-02-09T23:32:05.012Z,82.85
2023-02-09T23:34:37.474Z,83.11
2023-02-09T23:37:18.106Z,83.23
2023-02-09T23:39:53.346Z,83.33
2023-02-09T23:42:23.041Z,83.41
2023-02-09T23:44:52.712Z,83.49
2023-02-09T23:47:22.454Z,83.63
2023-02-09T23:49:54.743Z,84.54
2023-02-09T23:52:24.468Z,84.40
2023-02-09T23:54:54.144Z,84.86
2023-02-09T23:57:23.976Z,85.03
2023-02-09T23:59:56.383Z,85.02
